Time;durP1;ratioP1;P1;durP2;ratioP2;P2;SDS_P1;SDS_P2;PMS_P1;PMS_P2;Temp;Humidity;BMP_temperature;BMP_pressure;BME280_temperature;BME280_humidity;BME280_pressure;Samples;Min_cycle;Max_cycle;Signal;HPM_P1;HPM_P2
2022/06/18 00:02:12;;;;;;;1.92;1.25;;;;;;;;;;1754217;80;26284;-46
2022/06/18 00:04:39;;;;;;;1.50;1.40;;;;;;;;;;1753741;80;26233;-50
2022/06/18 00:07:09;;;;;;;1.30;1.30;;;;;;;;;;1775586;79;26340;-48
2022/06/18 00:09:41;;;;;;;1.32;1.22;;;;;;;;;;1754210;80;26261;-51
2022/06/18 00:14:54;;;;;;;1.50;1.40;;;;;;;;;;1753124;80;26395;-49
2022/06/18 00:17:21;;;;;;;1.30;1.30;;;;;;;;;;1744458;80;26369;-44
2022/06/18 00:19:49;;;;;;;1.60;1.50;;;;;;;;;;1753477;80;26363;-47
2022/06/18 00:22:18;;;;;;;1.40;1.30;;;;;;;;;;1753352;80;26324;-48
2022/06/18 00:24:45;;;;;;;1.57;1.20;;;;;;;;;;1754285;82;26285;-46
2022/06/18 00:27:13;;;;;;;4.20;2.02;;;;;;;;;;1754265;80;26393;-45
2022/06/18 00:29:41;;;;;;;1.30;1.30;;;;;;;;;;1753961;80;26354;-49
2022/06/18 00:32:08;;;;;;;1.40;1.30;;;;;;;;;;1753795;80;26308;-45
2022/06/18 00:34:36;;;;;;;1.30;1.20;;;;;;;;;;1754128;82;26804;-50
2022/06/18 00:37:05;;;;;;;1.65;1.55;;;;;;;;;;1762443;80;26376;-46
2022/06/18 00:39:32;;;;;;;1.25;1.20;;;;;;;;;;1751714;81;26249;-45
2022/06/18 00:42:01;;;;;;;1.40;1.27;;;;;;;;;;1732731;82;26249;-47
2022/06/18 00:44:29;;;;;;;1.20;1.20;;;;;;;;;;1758396;80;26307;-44
2022/06/18 00:47:10;;;;;;;1.42;1.32;;;;;;;;;;1745128;82;26292;-47
2022/06/18 00:49:39;;;;;;;1.42;1.40;;;;;;;;;;1743589;80;26300;-50
2022/06/18 00:52:08;;;;;;;1.15;1.10;;;;;;;;;;1753185;80;26472;-47
2022/06/18 00:54:37;;;;;;;1.37;1.27;;;;;;;;;;1753170;80;26366;-47
2022/06/18 00:57:07;;;;;;;3.22;1.30;;;;;;;;;;1753950;80;26350;-45
2022/06/18 00:59:54;;;;;;;1.30;1.30;;;;;;;;;;1753169;80;26312;-46
2022/06/18 01:02:38;;;;;;;4.15;1.20;;;;;;;;;;1738466;80;26308;-50
2022/06/18 01:05:16;;;;;;;1.40;1.30;;;;;;;;;;1753666;80;26256;-51
2022/06/18 01:07:45;;;;;;;1.05;1.05;;;;;;;;;;1763876;79;26336;-48
2022/06/18 01:10:17;;;;;;;1.62;1.20;;;;;;;;;;1753887;80;26297;-45
2022/06/18 01:12:44;;;;;;;1.25;1.25;;;;;;;;;;1762533;80;26321;-48
2022/06/18 01:15:12;;;;;;;1.20;1.20;;;;;;;;;;1753172;80;26806;-45
2022/06/18 01:17:40;;;;;;;1.10;1.10;;;;;;;;;;1754043;80;26288;-47
2022/06/18 01:20:09;;;;;;;1.10;1.10;;;;;;;;;;1753447;80;27297;-45
2022/06/18 01:22:55;;;;;;;1.10;1.10;;;;;;;;;;1752295;80;26244;-48
2022/06/18 01:25:23;;;;;;;1.10;1.10;;;;;;;;;;1744166;80;26386;-45
2022/06/18 01:27:50;;;;;;;4.08;1.10;;;;;;;;;;1754371;81;26371;-45
2022/06/18 01:30:20;;;;;;;1.37;1.27;;;;;;;;;;1748393;80;26343;-45
2022/06/18 01:32:49;;;;;;;1.15;1.15;;;;;;;;;;1742757;80;26320;-48
2022/06/18 01:35:17;;;;;;;1.10;1.10;;;;;;;;;;1754826;80;26606;-48
2022/06/18 01:37:45;;;;;;;1.17;1.10;;;;;;;;;;1759794;80;26292;-45
2022/06/18 01:40:15;;;;;;;1.25;1.25;;;;;;;;;;1753678;81;26434;-48
2022/06/18 01:42:44;;;;;;;1.25;1.25;;;;;;;;;;1737790;80;26752;-50
2022/06/18 01:45:12;;;;;;;1.77;1.27;;;;;;;;;;1752069;80;26702;-51
2022/06/18 01:48:00;;;;;;;1.20;1.20;;;;;;;;;;1745241;80;27197;-47
2022/06/18 01:50:35;;;;;;;1.52;1.22;;;;;;;;;;1762286;80;26288;-46
2022/06/18 01:53:07;;;;;;;1.17;1.17;;;;;;;;;;1753872;80;26980;-47
2022/06/18 01:55:35;;;;;;;1.00;1.00;;;;;;;;;;1753280;80;26304;-47
2022/06/18 01:58:04;;;;;;;1.32;1.30;;;;;;;;;;1753783;80;26798;-46
2022/06/18 02:00:32;;;;;;;1.37;1.30;;;;;;;;;;1752478;80;26697;-52
2022/06/18 02:03:00;;;;;;;1.20;1.20;;;;;;;;;;1752748;82;26276;-47
2022/06/18 02:05:28;;;;;;;1.10;1.10;;;;;;;;;;1754109;82;26731;-52
2022/06/18 02:07:56;;;;;;;1.15;1.15;;;;;;;;;;1754195;80;26421;-51
2022/06/18 02:10:27;;;;;;;1.40;1.30;;;;;;;;;;1754586;80;26305;-49
2022/06/18 02:12:56;;;;;;;1.10;1.10;;;;;;;;;;1752923;80;26312;-50
2022/06/18 02:15:29;;;;;;;1.32;1.27;;;;;;;;;;1735347;80;26308;-46
2022/06/18 02:17:58;;;;;;;1.50;1.40;;;;;;;;;;1753988;80;26363;-47
2022/06/18 02:20:27;;;;;;;1.10;1.10;;;;;;;;;;1753049;80;26264;-48
2022/06/18 02:22:55;;;;;;;1.30;1.30;;;;;;;;;;1740160;82;26733;-47
2022/06/18 02:25:24;;;;;;;1.30;1.20;;;;;;;;;;1734387;80;26256;-49
2022/06/18 02:27:53;;;;;;;1.30;1.30;;;;;;;;;;1753675;82;26288;-47
2022/06/18 02:30:23;;;;;;;1.85;1.10;;;;;;;;;;1751747;80;26277;-45
2022/06/18 02:32:52;;;;;;;1.10;1.10;;;;;;;;;;1736130;82;26295;-45
2022/06/18 02:35:19;;;;;;;1.15;1.15;;;;;;;;;;1753047;80;26298;-46
2022/06/18 02:37:47;;;;;;;1.10;1.10;;;;;;;;;;1763791;80;27476;-49
2022/06/18 02:40:19;;;;;;;1.10;1.10;;;;;;;;;;1753885;80;26371;-47
2022/06/18 02:42:48;;;;;;;1.10;1.10;;;;;;;;;;1759046;80;26271;-45
2022/06/18 02:45:16;;;;;;;1.17;1.17;;;;;;;;;;1752280;80;26713;-47
2022/06/18 02:47:45;;;;;;;1.20;1.20;;;;;;;;;;1763613;80;26746;-50
2022/06/18 02:50:14;;;;;;;1.25;1.10;;;;;;;;;;1736215;80;26787;-46
2022/06/18 02:52:43;;;;;;;0.90;0.90;;;;;;;;;;1754586;80;26708;-48
2022/06/18 02:55:12;;;;;;;1.07;1.07;;;;;;;;;;1754422;80;26303;-51
2022/06/18 02:57:39;;;;;;;1.00;1.00;;;;;;;;;;1760626;80;26802;-46
2022/06/18 03:00:08;;;;;;;1.22;1.12;;;;;;;;;;1757103;80;26362;-44
2022/06/18 03:02:36;;;;;;;1.00;1.00;;;;;;;;;;1754173;80;26387;-45
2022/06/18 03:05:03;;;;;;;1.07;1.07;;;;;;;;;;1752844;82;26390;-48
2022/06/18 03:07:31;;;;;;;1.20;1.20;;;;;;;;;;1757014;79;26371;-48
2022/06/18 03:12:43;;;;;;;1.00;1.00;;;;;;;;;;1732887;80;26833;-48
2022/06/18 03:15:10;;;;;;;1.10;1.10;;;;;;;;;;1750379;80;26693;-47
2022/06/18 03:17:38;;;;;;;1.15;1.15;;;;;;;;;;1753297;80;26236;-47
2022/06/18 03:20:07;;;;;;;0.98;0.98;;;;;;;;;;1752882;80;26228;-45
2022/06/18 03:22:34;;;;;;;1.10;1.10;;;;;;;;;;1759483;80;26229;-47
2022/06/18 03:25:01;;;;;;;1.10;1.10;;;;;;;;;;1772641;80;26293;-51
2022/06/18 03:27:28;;;;;;;1.00;1.00;;;;;;;;;;1753116;80;26799;-44
2022/06/18 03:29:56;;;;;;;1.15;1.15;;;;;;;;;;1751200;80;26624;-46
2022/06/18 03:32:23;;;;;;;1.20;1.20;;;;;;;;;;1743702;80;26862;-47
2022/06/18 03:34:50;;;;;;;1.12;1.10;;;;;;;;;;1755775;80;26873;-48
2022/06/18 03:37:17;;;;;;;0.90;0.90;;;;;;;;;;1771426;80;26888;-47
2022/06/18 03:39:45;;;;;;;1.12;1.10;;;;;;;;;;1756324;80;26262;-50
2022/06/18 03:42:12;;;;;;;1.00;1.00;;;;;;;;;;1752183;80;26363;-45
2022/06/18 03:44:40;;;;;;;1.05;1.05;;;;;;;;;;1758591;80;26311;-48
2022/06/18 03:47:07;;;;;;;1.10;1.10;;;;;;;;;;1751099;80;26794;-47
2022/06/18 03:49:35;;;;;;;1.00;1.00;;;;;;;;;;1760406;80;26292;-48
2022/06/18 03:52:03;;;;;;;1.00;1.00;;;;;;;;;;1744112;81;27066;-51
2022/06/18 03:54:31;;;;;;;0.90;0.90;;;;;;;;;;1760973;80;26430;-46
2022/06/18 03:56:58;;;;;;;0.95;0.95;;;;;;;;;;1769074;80;26432;-49
2022/06/18 03:59:25;;;;;;;1.20;1.10;;;;;;;;;;1761887;80;26355;-49
2022/06/18 04:01:53;;;;;;;0.88;0.88;;;;;;;;;;1759114;80;26767;-47
2022/06/18 04:04:20;;;;;;;1.00;1.00;;;;;;;;;;1757319;80;26291;-50
2022/06/18 04:06:47;;;;;;;1.17;1.17;;;;;;;;;;1767515;79;26321;-45
2022/06/18 04:09:14;;;;;;;1.00;1.00;;;;;;;;;;1760400;80;26291;-51
2022/06/18 04:11:42;;;;;;;1.00;1.00;;;;;;;;;;1759790;80;26379;-50
2022/06/18 04:14:10;;;;;;;1.00;1.00;;;;;;;;;;1758471;80;26295;-46
2022/06/18 04:16:37;;;;;;;1.00;1.00;;;;;;;;;;1759909;80;26328;-51
2022/06/18 04:19:05;;;;;;;0.90;0.90;;;;;;;;;;1761243;80;26649;-46
2022/06/18 04:21:32;;;;;;;0.90;0.90;;;;;;;;;;1760680;80;26301;-50
2022/06/18 04:23:59;;;;;;;0.90;0.90;;;;;;;;;;1750790;81;26307;-51
2022/06/18 04:26:27;;;;;;;1.00;1.00;;;;;;;;;;1762693;80;26323;-50
2022/06/18 04:28:54;;;;;;;1.00;1.00;;;;;;;;;;1763191;79;26273;-46
2022/06/18 04:31:21;;;;;;;1.10;1.10;;;;;;;;;;1760217;80;26336;-49
2022/06/18 04:33:48;;;;;;;1.00;1.00;;;;;;;;;;1751453;80;26390;-46
2022/06/18 04:36:20;;;;;;;0.98;0.98;;;;;;;;;;1753763;80;26289;-48
2022/06/18 04:38:47;;;;;;;1.15;1.15;;;;;;;;;;1758714;80;26280;-46
2022/06/18 04:41:15;;;;;;;0.90;0.90;;;;;;;;;;1751901;80;26343;-48
2022/06/18 04:43:42;;;;;;;1.95;1.00;;;;;;;;;;1753769;80;26280;-49
2022/06/18 04:46:10;;;;;;;1.22;1.12;;;;;;;;;;1760539;80;26316;-44
2022/06/18 04:48:37;;;;;;;1.00;1.00;;;;;;;;;;1751106;80;26379;-51
2022/06/18 04:51:05;;;;;;;1.00;1.00;;;;;;;;;;1742090;80;26248;-49
2022/06/18 04:53:32;;;;;;;1.00;1.00;;;;;;;;;;1759025;80;26263;-45
2022/06/18 04:55:59;;;;;;;0.95;0.95;;;;;;;;;;1755211;80;26301;-51
2022/06/18 04:58:26;;;;;;;1.47;1.00;;;;;;;;;;1745251;80;26809;-48
2022/06/18 05:00:54;;;;;;;2.17;1.20;;;;;;;;;;1751402;80;26249;-49
2022/06/18 05:03:22;;;;;;;1.20;1.20;;;;;;;;;;1748251;80;26292;-48
2022/06/18 05:05:49;;;;;;;1.10;1.10;;;;;;;;;;1753361;80;26736;-48
2022/06/18 05:08:16;;;;;;;1.10;1.10;;;;;;;;;;1734133;80;26675;-50
2022/06/18 05:10:44;;;;;;;1.10;1.10;;;;;;;;;;1750230;80;26283;-49
2022/06/18 05:13:12;;;;;;;1.20;1.20;;;;;;;;;;1759447;80;26311;-47
2022/06/18 05:15:41;;;;;;;1.02;1.02;;;;;;;;;;1767689;80;26299;-46
2022/06/18 05:18:09;;;;;;;1.07;1.07;;;;;;;;;;1755458;80;26300;-47
2022/06/18 05:20:37;;;;;;;1.00;1.00;;;;;;;;;;1753711;80;26324;-50
2022/06/18 05:23:04;;;;;;;1.00;1.00;;;;;;;;;;1750196;80;26304;-47
2022/06/18 05:25:31;;;;;;;1.57;1.05;;;;;;;;;;1757912;80;26300;-48
2022/06/18 05:27:59;;;;;;;1.02;1.02;;;;;;;;;;1751750;80;26300;-50
2022/06/18 05:30:27;;;;;;;1.30;1.20;;;;;;;;;;1752737;80;26268;-51
2022/06/18 05:32:55;;;;;;;1.20;1.20;;;;;;;;;;1752740;80;26341;-46
2022/06/18 05:35:22;;;;;;;1.22;1.22;;;;;;;;;;1736469;81;26307;-45
2022/06/18 05:37:50;;;;;;;2.02;1.40;;;;;;;;;;1745749;80;26399;-48
2022/06/18 05:40:19;;;;;;;1.30;1.30;;;;;;;;;;1754116;80;26281;-48
2022/06/18 05:42:47;;;;;;;1.50;1.40;;;;;;;;;;1761546;80;26382;-46
2022/06/18 05:45:15;;;;;;;1.20;1.20;;;;;;;;;;1747044;80;26339;-46
2022/06/18 05:47:42;;;;;;;1.72;1.50;;;;;;;;;;1739454;80;26296;-51
2022/06/18 05:50:11;;;;;;;1.75;1.45;;;;;;;;;;1750105;80;26328;-46
2022/06/18 05:52:38;;;;;;;1.40;1.40;;;;;;;;;;1752093;80;26307;-47
2022/06/18 05:55:05;;;;;;;1.32;1.32;;;;;;;;;;1732243;80;26279;-48
2022/06/18 05:57:33;;;;;;;1.50;1.40;;;;;;;;;;1754161;80;26234;-45
2022/06/18 06:00:07;;;;;;;1.55;1.55;;;;;;;;;;1749929;80;26426;-45
2022/06/18 06:02:34;;;;;;;1.42;1.42;;;;;;;;;;1753927;80;26763;-46
2022/06/18 06:05:01;;;;;;;1.40;1.40;;;;;;;;;;1748963;80;26830;-50
2022/06/18 06:07:29;;;;;;;1.40;1.40;;;;;;;;;;1752873;79;26786;-47
2022/06/18 06:12:42;;;;;;;1.52;1.52;;;;;;;;;;1752236;82;26375;-46
2022/06/18 06:15:10;;;;;;;1.60;1.60;;;;;;;;;;1750493;80;26323;-49
2022/06/18 06:17:37;;;;;;;1.47;1.45;;;;;;;;;;1747381;80;26323;-49
2022/06/18 06:20:06;;;;;;;1.70;1.70;;;;;;;;;;1753907;80;26294;-46
2022/06/18 06:22:38;;;;;;;1.60;1.50;;;;;;;;;;1752684;80;26320;-46
2022/06/18 06:25:02;;;;;;;1.82;1.72;;;;;;;;;;1752531;80;26304;-46
2022/06/18 06:27:30;;;;;;;1.50;1.50;;;;;;;;;;1748212;80;26354;-49
2022/06/18 06:29:57;;;;;;;1.67;1.67;;;;;;;;;;1736840;80;26252;-48
2022/06/18 06:32:24;;;;;;;1.60;1.60;;;;;;;;;;1739026;80;26280;-44
2022/06/18 06:34:51;;;;;;;1.70;1.70;;;;;;;;;;1745292;80;26684;-46
2022/06/18 06:37:19;;;;;;;1.70;1.60;;;;;;;;;;1744644;80;26860;-49
2022/06/18 06:39:46;;;;;;;1.82;1.60;;;;;;;;;;1731131;80;26373;-45
2022/06/18 06:42:15;;;;;;;1.75;1.65;;;;;;;;;;1751721;80;26269;-45
2022/06/18 06:44:42;;;;;;;1.80;1.70;;;;;;;;;;1753386;80;26312;-45
2022/06/18 06:47:10;;;;;;;4.40;2.10;;;;;;;;;;1756437;80;26288;-56
2022/06/18 06:49:38;;;;;;;2.33;2.00;;;;;;;;;;1753482;80;26808;-53
2022/06/18 06:52:05;;;;;;;4.20;2.00;;;;;;;;;;1753934;80;26241;-54
2022/06/18 06:54:32;;;;;;;3.08;2.00;;;;;;;;;;1761781;80;26377;-54
2022/06/18 06:59:45;;;;;;;3.25;2.00;;;;;;;;;;1741028;80;26265;-52
2022/06/18 07:02:14;;;;;;;2.72;2.10;;;;;;;;;;1759728;80;26370;-54
2022/06/18 07:04:42;;;;;;;2.27;2.08;;;;;;;;;;1747610;80;26366;-53
2022/06/18 07:07:10;;;;;;;3.90;2.00;;;;;;;;;;1746725;80;26609;-53
2022/06/18 07:09:38;;;;;;;3.40;2.10;;;;;;;;;;1742755;80;26237;-51
2022/06/18 07:12:05;;;;;;;2.30;2.00;;;;;;;;;;1742935;80;26381;-48
2022/06/18 07:14:33;;;;;;;2.70;1.85;;;;;;;;;;1742071;80;26248;-47
2022/06/18 07:17:00;;;;;;;2.00;1.90;;;;;;;;;;1742040;80;26347;-53
2022/06/18 07:19:27;;;;;;;2.20;2.00;;;;;;;;;;1753045;80;26277;-51
2022/06/18 07:21:55;;;;;;;2.02;1.92;;;;;;;;;;1744551;80;26280;-54
2022/06/18 07:24:22;;;;;;;2.05;1.95;;;;;;;;;;1755650;80;26327;-50
2022/06/18 07:26:49;;;;;;;3.50;2.00;;;;;;;;;;1744800;80;26844;-50
2022/06/18 07:29:20;;;;;;;2.80;2.10;;;;;;;;;;1741684;80;26285;-49
2022/06/18 07:31:45;;;;;;;2.85;2.00;;;;;;;;;;1750748;80;26763;-50
2022/06/18 07:34:14;;;;;;;2.08;1.90;;;;;;;;;;1746118;82;26949;-47
2022/06/18 07:36:41;;;;;;;2.20;2.00;;;;;;;;;;1752038;80;26924;-50
2022/06/18 07:39:09;;;;;;;1.90;1.80;;;;;;;;;;1753727;80;26861;-51
2022/06/18 07:41:37;;;;;;;2.10;2.00;;;;;;;;;;1741101;80;26332;-52
2022/06/18 07:44:05;;;;;;;3.25;2.10;;;;;;;;;;1746376;80;26317;-47
2022/06/18 07:46:32;;;;;;;4.30;2.05;;;;;;;;;;1744416;80;26328;-47
2022/06/18 07:48:59;;;;;;;2.08;1.98;;;;;;;;;;1768634;80;26384;-47
2022/06/18 07:51:27;;;;;;;2.30;2.20;;;;;;;;;;1753968;80;26841;-51
2022/06/18 07:53:55;;;;;;;2.10;2.00;;;;;;;;;;1742304;80;26353;-52
2022/06/18 07:56:22;;;;;;;2.20;2.10;;;;;;;;;;1752291;80;26245;-48
2022/06/18 07:58:50;;;;;;;2.20;2.10;;;;;;;;;;1767998;80;26584;-49
2022/06/18 08:01:17;;;;;;;2.75;2.10;;;;;;;;;;1763525;80;26839;-51
2022/06/18 08:03:46;;;;;;;2.12;2.10;;;;;;;;;;1755158;80;26762;-49
2022/06/18 08:06:13;;;;;;;2.50;2.02;;;;;;;;;;1753875;80;26240;-49
2022/06/18 08:08:40;;;;;;;5.37;2.37;;;;;;;;;;1756609;79;26323;-49
2022/06/18 08:11:09;;;;;;;2.52;2.30;;;;;;;;;;1746401;80;26799;-51
2022/06/18 08:13:36;;;;;;;2.40;2.15;;;;;;;;;;1744821;80;26305;-52
2022/06/18 08:16:04;;;;;;;2.92;2.20;;;;;;;;;;1752154;80;26249;-53
2022/06/18 08:18:31;;;;;;;4.28;2.52;;;;;;;;;;1752502;80;26261;-53
2022/06/18 08:21:00;;;;;;;2.40;2.15;;;;;;;;;;1752864;81;26293;-48
2022/06/18 08:23:28;;;;;;;2.47;2.37;;;;;;;;;;1760142;80;26445;-53
2022/06/18 08:25:55;;;;;;;2.52;2.42;;;;;;;;;;1751565;80;26363;-47
2022/06/18 08:28:23;;;;;;;2.75;2.60;;;;;;;;;;1750991;80;26748;-50
2022/06/18 08:30:50;;;;;;;2.60;2.40;;;;;;;;;;1740790;80;26236;-48
2022/06/18 08:33:18;;;;;;;3.00;2.80;;;;;;;;;;1741265;80;26316;-49
2022/06/18 08:35:45;;;;;;;3.83;2.50;;;;;;;;;;1771298;80;26382;-49
2022/06/18 08:38:13;;;;;;;2.77;2.52;;;;;;;;;;1750844;80;26289;-49
2022/06/18 08:40:45;;;;;;;3.00;2.80;;;;;;;;;;1764308;80;26278;-47
2022/06/18 08:43:29;;;;;;;3.00;2.70;;;;;;;;;;1762811;80;26803;-53
2022/06/18 08:46:06;;;;;;;2.70;2.50;;;;;;;;;;1762591;80;26277;-53
2022/06/18 08:48:44;;;;;;;3.37;2.60;;;;;;;;;;1768050;79;26309;-55
2022/06/18 08:51:16;;;;;;;2.87;2.30;;;;;;;;;;1757080;80;26284;-47
2022/06/18 08:53:57;;;;;;;3.15;2.60;;;;;;;;;;1746926;80;25372;-52
2022/06/18 08:56:26;;;;;;;2.75;2.65;;;;;;;;;;1720616;80;26677;-48
2022/06/18 08:59:03;;;;;;;3.22;2.90;;;;;;;;;;1763513;79;26720;-54
2022/06/18 09:01:32;;;;;;;4.33;3.00;;;;;;;;;;1760278;80;26826;-48
2022/06/18 09:04:04;;;;;;;3.10;2.80;;;;;;;;;;1773102;80;26698;-52
2022/06/18 09:06:42;;;;;;;3.10;2.90;;;;;;;;;;1772484;79;26788;-50
2022/06/18 09:09:11;;;;;;;7.53;3.02;;;;;;;;;;1775471;80;26287;-47
2022/06/18 09:11:52;;;;;;;3.47;3.20;;;;;;;;;;1772715;80;26333;-47
2022/06/18 09:14:23;;;;;;;3.20;3.00;;;;;;;;;;1759709;80;26717;-54
2022/06/18 09:16:52;;;;;;;3.75;3.33;;;;;;;;;;1762025;79;26429;-48
2022/06/18 09:19:20;;;;;;;3.12;2.95;;;;;;;;;;1761121;80;26817;-53
2022/06/18 09:21:49;;;;;;;5.10;3.10;;;;;;;;;;1767487;80;26338;-54
2022/06/18 09:24:21;;;;;;;5.53;3.10;;;;;;;;;;1757060;80;26414;-53
2022/06/18 09:26:49;;;;;;;3.33;2.98;;;;;;;;;;1752872;80;26837;-50
2022/06/18 09:29:18;;;;;;;3.90;3.02;;;;;;;;;;1761091;80;26795;-49
2022/06/18 09:31:46;;;;;;;3.27;3.02;;;;;;;;;;1753285;79;26787;-54
2022/06/18 09:34:15;;;;;;;6.15;2.98;;;;;;;;;;1754723;80;26767;-49
2022/06/18 09:36:44;;;;;;;3.20;2.95;;;;;;;;;;1758658;79;26826;-51
2022/06/18 09:39:16;;;;;;;3.12;2.83;;;;;;;;;;1758764;80;26736;-55
2022/06/18 09:41:44;;;;;;;5.28;3.20;;;;;;;;;;1760459;79;26332;-53
2022/06/18 09:44:16;;;;;;;3.83;2.85;;;;;;;;;;1750664;80;26308;-51
2022/06/18 09:46:45;;;;;;;4.60;3.20;;;;;;;;;;1768426;80;26380;-52
2022/06/18 09:49:12;;;;;;;3.30;3.10;;;;;;;;;;1761644;80;26757;-51
2022/06/18 09:51:54;;;;;;;3.12;3.02;;;;;;;;;;1757347;80;26233;-49
2022/06/18 09:54:19;;;;;;;4.00;3.40;;;;;;;;;;1750843;80;26276;-49
2022/06/18 09:56:48;;;;;;;4.95;3.30;;;;;;;;;;1747324;80;26379;-49
2022/06/18 09:59:17;;;;;;;3.35;3.10;;;;;;;;;;1760617;80;26299;-52
2022/06/18 10:01:46;;;;;;;3.15;3.05;;;;;;;;;;1747768;80;26370;-54
2022/06/18 10:07:00;;;;;;;3.67;3.25;;;;;;;;;;1762459;80;26482;-48
2022/06/18 10:09:29;;;;;;;4.55;3.20;;;;;;;;;;1766041;80;26343;-50
2022/06/18 10:11:57;;;;;;;4.30;3.40;;;;;;;;;;1746334;80;26782;-52
2022/06/18 10:14:24;;;;;;;4.15;3.10;;;;;;;;;;1756377;80;26248;-51
2022/06/18 10:16:59;;;;;;;3.72;3.25;;;;;;;;;;1757486;80;26315;-49
2022/06/18 10:19:28;;;;;;;2.95;2.83;;;;;;;;;;1756758;80;26788;-54
2022/06/18 10:22:00;;;;;;;4.67;2.90;;;;;;;;;;1773435;80;26823;-50
2022/06/18 10:24:44;;;;;;;3.33;3.00;;;;;;;;;;1769124;80;28065;-47
2022/06/18 10:27:19;;;;;;;4.08;2.98;;;;;;;;;;1756632;80;26359;-49
2022/06/18 10:29:56;;;;;;;3.17;2.90;;;;;;;;;;1745960;80;26713;-53
2022/06/18 10:32:25;;;;;;;5.33;3.12;;;;;;;;;;1755960;80;26193;-50
2022/06/18 10:34:57;;;;;;;3.45;2.80;;;;;;;;;;1747236;80;26386;-51
2022/06/18 10:37:35;;;;;;;3.15;2.95;;;;;;;;;;1770769;79;26377;-52
2022/06/18 10:40:03;;;;;;;5.03;3.42;;;;;;;;;;1755858;81;26763;-49
2022/06/18 10:42:38;;;;;;;3.47;3.17;;;;;;;;;;1743850;80;26816;-53
2022/06/18 10:45:19;;;;;;;3.22;3.02;;;;;;;;;;1740178;80;26763;-52
2022/06/18 10:47:47;;;;;;;3.10;2.90;;;;;;;;;;1760361;80;26386;-53
2022/06/18 10:50:16;;;;;;;3.10;2.90;;;;;;;;;;1756818;80;26670;-52
2022/06/18 10:52:44;;;;;;;3.50;3.20;;;;;;;;;;1755041;80;26771;-54
2022/06/18 10:55:16;;;;;;;4.80;3.00;;;;;;;;;;1762122;80;26319;-53
2022/06/18 10:57:44;;;;;;;3.17;2.92;;;;;;;;;;1764305;80;26381;-47
2022/06/18 11:00:13;;;;;;;3.22;2.92;;;;;;;;;;1755213;80;26312;-49
2022/06/18 11:02:41;;;;;;;2.87;2.70;;;;;;;;;;1760122;80;26383;-52
2022/06/18 11:05:27;;;;;;;4.67;3.00;;;;;;;;;;1763993;79;27542;-53
2022/06/18 11:07:54;;;;;;;3.45;3.17;;;;;;;;;;1753395;80;26319;-50
2022/06/18 11:10:24;;;;;;;4.92;3.37;;;;;;;;;;1758441;80;26284;-51
2022/06/18 11:12:54;;;;;;;3.40;3.10;;;;;;;;;;1758539;80;26303;-49
2022/06/18 11:15:22;;;;;;;3.62;3.33;;;;;;;;;;1764138;80;26335;-50
2022/06/18 11:17:50;;;;;;;3.30;3.10;;;;;;;;;;1755801;80;26299;-49
2022/06/18 11:20:19;;;;;;;5.92;3.47;;;;;;;;;;1768083;80;26297;-52
2022/06/18 11:22:48;;;;;;;4.08;2.90;;;;;;;;;;1751087;81;26324;-49
2022/06/18 11:25:29;;;;;;;3.85;3.22;;;;;;;;;;1755238;80;26363;-49
2022/06/18 11:28:00;;;;;;;3.90;3.60;;;;;;;;;;1753727;80;26301;-52
2022/06/18 11:30:32;;;;;;;3.50;3.10;;;;;;;;;;1755623;80;26704;-54
2022/06/18 11:33:00;;;;;;;4.53;3.42;;;;;;;;;;1758949;80;26920;-54
2022/06/18 11:35:35;;;;;;;4.72;3.37;;;;;;;;;;1754409;80;26324;-56
2022/06/18 11:38:07;;;;;;;3.60;3.30;;;;;;;;;;1756207;80;26359;-50
2022/06/18 11:40:34;;;;;;;3.22;3.02;;;;;;;;;;1742684;80;26374;-48
2022/06/18 11:43:06;;;;;;;3.52;3.22;;;;;;;;;;1754123;80;26300;-49
2022/06/18 11:45:41;;;;;;;3.25;3.00;;;;;;;;;;1746333;80;26418;-53
2022/06/18 11:48:09;;;;;;;4.87;3.30;;;;;;;;;;1753656;80;26297;-53
2022/06/18 11:50:42;;;;;;;3.08;2.87;;;;;;;;;;1734203;80;26316;-51
2022/06/18 11:53:17;;;;;;;3.15;2.92;;;;;;;;;;1753000;80;26276;-48
2022/06/18 11:55:46;;;;;;;3.62;3.30;;;;;;;;;;1751775;80;26402;-48
2022/06/18 11:58:20;;;;;;;3.20;3.00;;;;;;;;;;1745415;80;26828;-51
2022/06/18 12:00:59;;;;;;;3.98;3.10;;;;;;;;;;1740025;80;26836;-50
2022/06/18 12:03:33;;;;;;;3.10;2.90;;;;;;;;;;1744639;80;26304;-53
2022/06/18 12:06:02;;;;;;;3.77;3.47;;;;;;;;;;1752983;80;26432;-49
2022/06/18 12:08:30;;;;;;;3.30;3.10;;;;;;;;;;1748123;80;26297;-50
2022/06/18 12:10:58;;;;;;;3.27;2.95;;;;;;;;;;1743935;80;26275;-51
2022/06/18 12:13:27;;;;;;;4.58;3.20;;;;;;;;;;1751500;80;26298;-48
2022/06/18 12:16:13;;;;;;;3.50;3.20;;;;;;;;;;1736877;80;26316;-50
2022/06/18 12:18:42;;;;;;;3.33;3.12;;;;;;;;;;1750868;80;26308;-48
2022/06/18 12:21:27;;;;;;;3.20;3.00;;;;;;;;;;1753217;81;26327;-54
2022/06/18 12:24:14;;;;;;;3.25;3.05;;;;;;;;;;1745255;80;26327;-52
2022/06/18 12:26:43;;;;;;;3.50;3.20;;;;;;;;;;1750879;80;26343;-53
2022/06/18 12:29:21;;;;;;;3.77;3.20;;;;;;;;;;1748939;80;26300;-54
2022/06/18 12:31:56;;;;;;;3.15;2.80;;;;;;;;;;1751935;80;26300;-51
2022/06/18 12:34:25;;;;;;;3.10;2.90;;;;;;;;;;1751107;80;26732;-53
2022/06/18 12:36:53;;;;;;;3.20;3.00;;;;;;;;;;1749562;80;26332;-52
2022/06/18 12:39:31;;;;;;;3.25;3.05;;;;;;;;;;1751926;80;26294;-54
2022/06/18 12:42:19;;;;;;;3.27;3.05;;;;;;;;;;1749707;80;26289;-56
2022/06/18 12:44:50;;;;;;;3.10;2.90;;;;;;;;;;1749618;80;26322;-52
2022/06/18 12:47:28;;;;;;;3.50;3.10;;;;;;;;;;1749246;80;26300;-52
2022/06/18 12:49:57;;;;;;;2.83;2.72;;;;;;;;;;1750746;80;26241;-54
2022/06/18 12:52:26;;;;;;;3.40;3.10;;;;;;;;;;1745912;80;26312;-52
2022/06/18 12:55:04;;;;;;;3.20;2.90;;;;;;;;;;1747842;80;26763;-52
2022/06/18 12:57:52;;;;;;;3.30;3.08;;;;;;;;;;1742612;80;26743;-49
2022/06/18 13:00:21;;;;;;;2.83;2.62;;;;;;;;;;1747962;80;26306;-49
2022/06/18 13:02:53;;;;;;;3.35;3.15;;;;;;;;;;1749675;80;26359;-56
2022/06/18 13:05:24;;;;;;;3.30;3.00;;;;;;;;;;1747107;80;26324;-61
2022/06/18 13:07:53;;;;;;;3.37;3.15;;;;;;;;;;1750266;79;26815;-60
2022/06/18 13:10:22;;;;;;;3.12;2.90;;;;;;;;;;1742230;80;26316;-61
2022/06/18 13:13:00;;;;;;;3.60;2.90;;;;;;;;;;1744927;80;26304;-61
2022/06/18 13:15:37;;;;;;;3.00;2.80;;;;;;;;;;1738187;80;26288;-54
2022/06/18 13:18:02;;;;;;;3.00;2.65;;;;;;;;;;1749124;80;26673;-55
2022/06/18 13:20:37;;;;;;;3.25;2.65;;;;;;;;;;1740218;80;26826;-56
2022/06/18 13:28:10;;;;;;;3.00;2.80;;;;;;;;;;1756435;80;26771;-58
2022/06/18 13:28:28;;;;;;;2.85;2.72;;;;;;;;;;1745883;80;26359;-54
2022/06/18 13:31:14;;;;;;;3.20;2.70;;;;;;;;;;1753740;80;26308;-57
2022/06/18 13:33:45;;;;;;;3.10;2.80;;;;;;;;;;1750742;80;26377;-55
2022/06/18 13:36:14;;;;;;;3.00;2.83;;;;;;;;;;1754991;80;26340;-55
2022/06/18 13:38:52;;;;;;;3.08;2.72;;;;;;;;;;1757514;80;26273;-54
2022/06/18 13:41:27;;;;;;;3.30;3.00;;;;;;;;;;1751965;80;26367;-50
2022/06/18 13:43:57;;;;;;;2.70;2.50;;;;;;;;;;1750331;80;26308;-50
2022/06/18 13:46:27;;;;;;;2.85;2.60;;;;;;;;;;1746333;82;26292;-53
2022/06/18 13:49:02;;;;;;;2.80;2.60;;;;;;;;;;1748676;80;26318;-53
2022/06/18 13:51:34;;;;;;;3.00;2.47;;;;;;;;;;1756872;80;26291;-47
2022/06/18 13:54:06;;;;;;;2.80;2.60;;;;;;;;;;1752338;80;26735;-55
2022/06/18 13:56:34;;;;;;;2.52;2.42;;;;;;;;;;1753149;80;26272;-53
2022/06/18 13:59:02;;;;;;;3.58;2.58;;;;;;;;;;1751878;80;26561;-47
2022/06/18 14:01:31;;;;;;;2.45;2.33;;;;;;;;;;1743721;80;26233;-51
2022/06/18 14:04:05;;;;;;;2.27;2.17;;;;;;;;;;1751094;80;26292;-51
2022/06/18 14:06:33;;;;;;;2.35;2.25;;;;;;;;;;1743667;79;26333;-56
2022/06/18 14:09:02;;;;;;;2.42;2.22;;;;;;;;;;1746971;80;26330;-50
2022/06/18 14:11:37;;;;;;;2.25;2.12;;;;;;;;;;1746002;80;26351;-51
2022/06/18 14:14:06;;;;;;;2.45;2.20;;;;;;;;;;1750049;80;26318;-55
2022/06/18 14:16:35;;;;;;;3.17;2.08;;;;;;;;;;1742299;80;26324;-52
2022/06/18 14:19:07;;;;;;;2.17;2.08;;;;;;;;;;1752190;80;26334;-57
2022/06/18 14:21:35;;;;;;;2.35;2.15;;;;;;;;;;1751298;80;26296;-50
2022/06/18 14:24:02;;;;;;;2.45;2.00;;;;;;;;;;1752607;80;26742;-51
2022/06/18 14:26:40;;;;;;;2.40;1.90;;;;;;;;;;1749658;80;26264;-53
2022/06/18 14:29:07;;;;;;;2.62;2.15;;;;;;;;;;1750905;80;26304;-51
2022/06/18 14:31:36;;;;;;;3.85;1.92;;;;;;;;;;1756265;80;26235;-56
2022/06/18 14:34:07;;;;;;;2.50;2.10;;;;;;;;;;1748204;80;26331;-55
2022/06/18 14:36:36;;;;;;;2.10;2.00;;;;;;;;;;1741741;80;26349;-55
2022/06/18 14:39:05;;;;;;;2.20;2.02;;;;;;;;;;1753067;80;26803;-55
2022/06/18 14:41:36;;;;;;;2.27;2.08;;;;;;;;;;1743544;82;26308;-54
2022/06/18 14:44:15;;;;;;;2.20;2.10;;;;;;;;;;1750676;80;26308;-49
2022/06/18 14:46:44;;;;;;;2.70;1.80;;;;;;;;;;1750596;80;26760;-55
2022/06/18 14:49:13;;;;;;;1.87;1.65;;;;;;;;;;1748874;80;26316;-54
2022/06/18 14:51:41;;;;;;;1.90;1.80;;;;;;;;;;1749971;80;26359;-52
2022/06/18 14:54:13;;;;;;;2.90;1.72;;;;;;;;;;1748657;80;26641;-55
2022/06/18 14:56:45;;;;;;;1.82;1.67;;;;;;;;;;1738995;80;26336;-55
2022/06/18 14:59:28;;;;;;;1.90;1.80;;;;;;;;;;1753607;80;26363;-54
2022/06/18 15:01:57;;;;;;;1.80;1.70;;;;;;;;;;1753606;80;26630;-50
2022/06/18 15:04:26;;;;;;;2.02;1.75;;;;;;;;;;1752095;80;26462;-54
2022/06/18 15:06:53;;;;;;;3.05;1.70;;;;;;;;;;1748535;79;26305;-50
2022/06/18 15:09:31;;;;;;;3.62;1.92;;;;;;;;;;1754255;80;26288;-51
2022/06/18 15:11:58;;;;;;;1.87;1.62;;;;;;;;;;1750843;80;26359;-53
2022/06/18 15:14:30;;;;;;;1.90;1.80;;;;;;;;;;1755005;80;26340;-54
2022/06/18 15:19:51;;;;;;;1.60;1.50;;;;;;;;;;1753222;80;26321;-53